sensor_id;sensor_type;location;lat;lon;timestamp;pressure;altitude;pressure_sealevel;temperature;humidity
77288;BME280;66345;42.694;23.346;2023-05-02T00:02:04;95816.19;;;12.26;61.43
77288;BME280;66345;42.694;23.346;2023-05-02T00:04:30;95827.19;;;12.23;62.06
77288;BME280;66345;42.694;23.346;2023-05-02T00:06:55;95824.31;;;12.18;61.75
77288;BME280;66345;42.694;23.346;2023-05-02T00:09:21;95827.72;;;12.12;62.11
77288;BME280;66345;42.694;23.346;2023-05-02T00:11:46;95828.53;;;12.12;62.17
77288;BME280;66345;42.694;23.346;2023-05-02T00:14:12;95825.41;;;12.09;62.52
77288;BME280;66345;42.694;23.346;2023-05-02T00:16:37;95830.38;;;12.12;62.45
77288;BME280;66345;42.694;23.346;2023-05-02T00:19:03;95823.22;;;12.12;62.82
77288;BME280;66345;42.694;23.346;2023-05-02T00:21:28;95825.41;;;12.09;62.72
77288;BME280;66345;42.694;23.346;2023-05-02T00:23:54;95824.59;;;12.08;62.63
77288;BME280;66345;42.694;23.346;2023-05-02T00:26:23;95831.75;;;12.08;62.78
77288;BME280;66345;42.694;23.346;2023-05-02T00:28:48;95835.00;;;12.03;62.67
77288;BME280;66345;42.694;23.346;2023-05-02T00:31:14;95826.75;;;11.98;62.94
77288;BME280;66345;42.694;23.346;2023-05-02T00:33:39;95836.38;;;11.99;62.96
77288;BME280;66345;42.694;23.346;2023-05-02T00:36:15;95833.72;;;11.99;63.12
77288;BME280;66345;42.694;23.346;2023-05-02T00:38:41;95837.59;;;11.97;63.11
77288;BME280;66345;42.694;23.346;2023-05-02T00:41:06;95838.97;;;11.92;63.62
77288;BME280;66345;42.694;23.346;2023-05-02T00:43:32;95844.47;;;11.91;63.44
77288;BME280;66345;42.694;23.346;2023-05-02T00:45:57;95859.22;;;11.93;64.09
77288;BME280;66345;42.694;23.346;2023-05-02T00:48:24;95857.03;;;11.97;63.70
77288;BME280;66345;42.694;23.346;2023-05-02T00:50:49;95857.22;;;11.96;63.48
77288;BME280;66345;42.694;23.346;2023-05-02T00:53:15;95862.97;;;11.99;63.83
77288;BME280;66345;42.694;23.346;2023-05-02T00:55:40;95858.13;;;12.03;63.35
77288;BME280;66345;42.694;23.346;2023-05-02T00:58:10;95860.13;;;12.01;63.14
77288;BME280;66345;42.694;23.346;2023-05-02T01:09:01;95859.28;;;12.00;63.66
77288;BME280;66345;42.694;23.346;2023-05-02T01:11:43;95855.69;;;12.08;63.28
77288;BME280;66345;42.694;23.346;2023-05-02T01:14:10;95860.50;;;11.98;63.66
77288;BME280;66345;42.694;23.346;2023-05-02T01:16:38;95863.78;;;12.00;63.70
77288;BME280;66345;42.694;23.346;2023-05-02T01:19:08;95866.72;;;12.05;63.74
77288;BME280;66345;42.694;23.346;2023-05-02T01:21:38;95864.63;;;12.00;63.94
77288;BME280;66345;42.694;23.346;2023-05-02T01:24:11;95852.72;;;11.96;63.31
77288;BME280;66345;42.694;23.346;2023-05-02T01:29:19;95846.94;;;11.92;63.96
77288;BME280;66345;42.694;23.346;2023-05-02T01:31:48;95839.09;;;11.84;64.46
77288;BME280;66345;42.694;23.346;2023-05-02T01:34:16;95848.34;;;11.88;64.22
77288;BME280;66345;42.694;23.346;2023-05-02T01:36:44;95849.72;;;11.84;65.03
77288;BME280;66345;42.694;23.346;2023-05-02T01:39:19;95850.00;;;11.89;64.68
77288;BME280;66345;42.694;23.346;2023-05-02T01:41:49;95842.41;;;11.86;65.18
77288;BME280;66345;42.694;23.346;2023-05-02T01:44:21;95853.03;;;11.86;65.35
77288;BME280;66345;42.694;23.346;2023-05-02T01:46:48;95865.03;;;11.82;65.19
77288;BME280;66345;42.694;23.346;2023-05-02T01:49:15;95857.41;;;11.79;65.53
77288;BME280;66345;42.694;23.346;2023-05-02T01:51:47;95851.94;;;11.81;65.42
77288;BME280;66345;42.694;23.346;2023-05-02T01:54:15;95858.41;;;11.78;65.38
77288;BME280;66345;42.694;23.346;2023-05-02T01:56:41;95860.06;;;11.79;65.78
77288;BME280;66345;42.694;23.346;2023-05-02T01:59:13;95850.81;;;11.75;65.72
77288;BME280;66345;42.694;23.346;2023-05-02T02:01:40;95861.66;;;11.74;65.67
77288;BME280;66345;42.694;23.346;2023-05-02T02:04:10;95847.88;;;11.70;65.97
77288;BME280;66345;42.694;23.346;2023-05-02T02:06:37;95846.63;;;11.66;65.95
77288;BME280;66345;42.694;23.346;2023-05-02T02:09:03;95849.28;;;11.66;65.85
77288;BME280;66345;42.694;23.346;2023-05-02T02:11:34;95841.22;;;11.59;66.39
77288;BME280;66345;42.694;23.346;2023-05-02T02:14:05;95850.94;;;11.52;66.95
77288;BME280;66345;42.694;23.346;2023-05-02T02:16:33;95860.75;;;11.52;66.69
77288;BME280;66345;42.694;23.346;2023-05-02T02:19:05;95859.47;;;11.48;67.01
77288;BME280;66345;42.694;23.346;2023-05-02T02:21:33;95853.44;;;11.39;67.27
77288;BME280;66345;42.694;23.346;2023-05-02T02:24:01;95854.81;;;11.35;67.27
77288;BME280;66345;42.694;23.346;2023-05-02T02:26:28;95855.56;;;11.29;67.61
77288;BME280;66345;42.694;23.346;2023-05-02T02:28:54;95854.97;;;11.33;67.41
77288;BME280;66345;42.694;23.346;2023-05-02T02:31:20;95853.19;;;11.34;67.20
77288;BME280;66345;42.694;23.346;2023-05-02T02:33:46;95857.00;;;11.31;67.29
77288;BME280;66345;42.694;23.346;2023-05-02T02:36:42;95861.50;;;11.31;67.47
77288;BME280;66345;42.694;23.346;2023-05-02T02:47:41;95858.41;;;11.27;68.07
77288;BME280;66345;42.694;23.346;2023-05-02T02:50:26;95868.00;;;11.28;67.58
77288;BME280;66345;42.694;23.346;2023-05-02T02:52:59;95857.94;;;11.24;68.23
77288;BME280;66345;42.694;23.346;2023-05-02T02:58:46;95866.19;;;11.14;68.33
77288;BME280;66345;42.694;23.346;2023-05-02T03:01:17;95875.34;;;11.11;68.50
77288;BME280;66345;42.694;23.346;2023-05-02T03:03:47;95867.63;;;11.17;68.38
77288;BME280;66345;42.694;23.346;2023-05-02T03:06:13;95875.78;;;11.15;68.16
77288;BME280;66345;42.694;23.346;2023-05-02T03:08:40;95877.22;;;11.03;68.78
77288;BME280;66345;42.694;23.346;2023-05-02T03:11:06;95876.88;;;11.06;68.72
77288;BME280;66345;42.694;23.346;2023-05-02T03:13:32;95882.66;;;11.09;68.37
77288;BME280;66345;42.694;23.346;2023-05-02T03:18:57;95891.06;;;10.98;68.93
77288;BME280;66345;42.694;23.346;2023-05-02T03:21:23;95893.53;;;11.00;68.83
77288;BME280;66345;42.694;23.346;2023-05-02T03:23:48;95892.28;;;10.96;68.87
77288;BME280;66345;42.694;23.346;2023-05-02T03:26:14;95895.56;;;10.98;69.13
77288;BME280;66345;42.694;23.346;2023-05-02T03:28:39;95901.31;;;11.01;68.95
77288;BME280;66345;42.694;23.346;2023-05-02T03:31:05;95908.75;;;11.06;69.03
77288;BME280;66345;42.694;23.346;2023-05-02T03:33:31;95905.19;;;11.14;68.40
77288;BME280;66345;42.694;23.346;2023-05-02T03:35:57;95894.28;;;11.23;67.50
77288;BME280;66345;42.694;23.346;2023-05-02T03:38:22;95900.63;;;11.22;67.55
77288;BME280;66345;42.694;23.346;2023-05-02T03:40:48;95892.00;;;11.20;68.16
77288;BME280;66345;42.694;23.346;2023-05-02T03:43:13;95904.09;;;11.23;68.02
77288;BME280;66345;42.694;23.346;2023-05-02T03:45:39;95889.47;;;11.27;67.90
77288;BME280;66345;42.694;23.346;2023-05-02T03:48:04;95904.56;;;11.26;67.49
77288;BME280;66345;42.694;23.346;2023-05-02T03:50:30;95894.94;;;11.25;67.97
77288;BME280;66345;42.694;23.346;2023-05-02T03:52:56;95907.38;;;11.25;68.07
77288;BME280;66345;42.694;23.346;2023-05-02T03:55:22;95900.00;;;11.35;67.69
77288;BME280;66345;42.694;23.346;2023-05-02T03:57:48;95898.25;;;11.27;67.89
77288;BME280;66345;42.694;23.346;2023-05-02T04:00:14;95895.03;;;11.32;67.34
77288;BME280;66345;42.694;23.346;2023-05-02T04:02:40;95891.34;;;11.33;67.71
77288;BME280;66345;42.694;23.346;2023-05-02T04:05:05;95903.09;;;11.38;67.25
77288;BME280;66345;42.694;23.346;2023-05-02T04:07:34;95896.41;;;11.43;67.03
77288;BME280;66345;42.694;23.346;2023-05-02T04:10:00;95901.72;;;11.43;66.98
77288;BME280;66345;42.694;23.346;2023-05-02T04:12:26;95901.06;;;11.40;67.14
77288;BME280;66345;42.694;23.346;2023-05-02T04:14:51;95905.66;;;11.47;66.91
77288;BME280;66345;42.694;23.346;2023-05-02T04:17:16;95907.59;;;11.53;67.06
77288;BME280;66345;42.694;23.346;2023-05-02T04:19:42;95903.81;;;11.62;66.40
77288;BME280;66345;42.694;23.346;2023-05-02T04:22:07;95895.09;;;11.68;65.77
77288;BME280;66345;42.694;23.346;2023-05-02T04:24:33;95911.53;;;11.72;65.78
77288;BME280;66345;42.694;23.346;2023-05-02T04:26:58;95906.56;;;11.68;65.61
77288;BME280;66345;42.694;23.346;2023-05-02T04:29:24;95906.47;;;11.77;64.93
77288;BME280;66345;42.694;23.346;2023-05-02T04:31:50;95902.47;;;11.81;64.93
77288;BME280;66345;42.694;23.346;2023-05-02T04:34:15;95910.31;;;11.89;64.66
77288;BME280;66345;42.694;23.346;2023-05-02T04:36:41;95907.44;;;12.05;63.45
77288;BME280;66345;42.694;23.346;2023-05-02T04:39:09;95911.44;;;12.16;63.35
77288;BME280;66345;42.694;23.346;2023-05-02T04:41:34;95909.38;;;12.11;62.87
77288;BME280;66345;42.694;23.346;2023-05-02T04:43:59;95906.50;;;12.13;62.95
77288;BME280;66345;42.694;23.346;2023-05-02T04:46:25;95917.78;;;12.15;62.21
77288;BME280;66345;42.694;23.346;2023-05-02T04:48:51;95918.94;;;12.27;62.17
77288;BME280;66345;42.694;23.346;2023-05-02T04:51:16;95913.50;;;12.35;61.48
77288;BME280;66345;42.694;23.346;2023-05-02T04:53:42;95922.13;;;12.59;60.98
77288;BME280;66345;42.694;23.346;2023-05-02T04:56:07;95913.59;;;12.63;60.71
77288;BME280;66345;42.694;23.346;2023-05-02T04:58:33;95918.09;;;12.63;60.44
77288;BME280;66345;42.694;23.346;2023-05-02T05:00:59;95912.38;;;12.66;59.95
77288;BME280;66345;42.694;23.346;2023-05-02T05:03:26;95911.22;;;12.75;59.57
77288;BME280;66345;42.694;23.346;2023-05-02T05:05:53;95917.28;;;12.90;58.94
77288;BME280;66345;42.694;23.346;2023-05-02T05:08:19;95915.84;;;13.16;58.52
77288;BME280;66345;42.694;23.346;2023-05-02T05:10:45;95920.53;;;13.35;57.06
77288;BME280;66345;42.694;23.346;2023-05-02T05:13:10;95916.78;;;14.12;54.76
77288;BME280;66345;42.694;23.346;2023-05-02T05:15:38;95912.56;;;14.37;54.00
77288;BME280;66345;42.694;23.346;2023-05-02T05:18:04;95916.38;;;14.96;52.63
77288;BME280;66345;42.694;23.346;2023-05-02T05:20:30;95907.09;;;15.38;51.12
77288;BME280;66345;42.694;23.346;2023-05-02T05:22:56;95915.16;;;14.98;51.62
77288;BME280;66345;42.694;23.346;2023-05-02T05:25:21;95914.06;;;15.66;49.60
77288;BME280;66345;42.694;23.346;2023-05-02T05:27:48;95919.66;;;15.11;50.57
77288;BME280;66345;42.694;23.346;2023-05-02T05:30:13;95918.66;;;15.19;50.75
77288;BME280;66345;42.694;23.346;2023-05-02T05:32:39;95932.78;;;15.52;49.34
77288;BME280;66345;42.694;23.346;2023-05-02T05:35:04;95929.50;;;15.64;49.17
77288;BME280;66345;42.694;23.346;2023-05-02T05:37:30;95923.34;;;16.21;47.57
77288;BME280;66345;42.694;23.346;2023-05-02T05:39:55;95916.59;;;17.13;45.28
77288;BME280;66345;42.694;23.346;2023-05-02T05:42:21;95910.69;;;18.58;42.24
77288;BME280;66345;42.694;23.346;2023-05-02T05:44:47;95925.44;;;19.62;40.13
77288;BME280;66345;42.694;23.346;2023-05-02T05:47:18;95943.28;;;18.13;42.30
77288;BME280;66345;42.694;23.346;2023-05-02T05:49:43;95923.28;;;18.46;41.41
77288;BME280;66345;42.694;23.346;2023-05-02T05:52:09;95921.31;;;19.72;38.67
77288;BME280;66345;42.694;23.346;2023-05-02T05:54:34;95917.94;;;20.97;35.35
77288;BME280;66345;42.694;23.346;2023-05-02T05:56:59;95927.50;;;19.49;38.57
77288;BME280;66345;42.694;23.346;2023-05-02T05:59:25;95920.31;;;20.24;37.04
77288;BME280;66345;42.694;23.346;2023-05-02T06:01:51;95924.59;;;20.77;36.64
77288;BME280;66345;42.694;23.346;2023-05-02T06:04:18;95941.25;;;19.59;37.77
77288;BME280;66345;42.694;23.346;2023-05-02T06:06:43;95934.88;;;19.41;38.36
77288;BME280;66345;42.694;23.346;2023-05-02T06:09:09;95948.13;;;20.02;36.68
77288;BME280;66345;42.694;23.346;2023-05-02T06:11:35;95941.16;;;18.70;39.63
77288;BME280;66345;42.694;23.346;2023-05-02T06:14:01;95935.91;;;19.05;38.47
77288;BME280;66345;42.694;23.346;2023-05-02T06:16:27;95936.19;;;20.78;36.05
77288;BME280;66345;42.694;23.346;2023-05-02T06:18:52;95935.06;;;19.58;37.54
77288;BME280;66345;42.694;23.346;2023-05-02T06:21:18;95926.56;;;21.61;34.42
77288;BME280;66345;42.694;23.346;2023-05-02T06:23:43;95923.69;;;23.95;30.38
77288;BME280;66345;42.694;23.346;2023-05-02T06:26:10;95926.88;;;21.31;33.50
77288;BME280;66345;42.694;23.346;2023-05-02T06:28:35;95928.31;;;20.19;35.68
77288;BME280;66345;42.694;23.346;2023-05-02T06:31:02;95930.44;;;19.94;35.82
77288;BME280;66345;42.694;23.346;2023-05-02T06:33:29;95928.00;;;20.56;34.27
77288;BME280;66345;42.694;23.346;2023-05-02T06:35:55;95940.19;;;19.83;35.82
77288;BME280;66345;42.694;23.346;2023-05-02T06:38:21;95922.34;;;19.12;36.83
77288;BME280;66345;42.694;23.346;2023-05-02T06:40:48;95930.84;;;20.95;33.17
77288;BME280;66345;42.694;23.346;2023-05-02T06:43:13;95913.16;;;21.32;33.01
77288;BME280;66345;42.694;23.346;2023-05-02T06:48:05;95912.41;;;20.46;34.30
77288;BME280;66345;42.694;23.346;2023-05-02T06:50:31;95910.59;;;21.09;33.64
77288;BME280;66345;42.694;23.346;2023-05-02T06:52:56;95914.38;;;24.28;28.37
77288;BME280;66345;42.694;23.346;2023-05-02T06:55:22;95913.63;;;22.19;31.02
77288;BME280;66345;42.694;23.346;2023-05-02T06:57:48;95913.72;;;22.29;30.69
77288;BME280;66345;42.694;23.346;2023-05-02T07:00:18;95918.47;;;21.44;31.17
77288;BME280;66345;42.694;23.346;2023-05-02T07:02:45;95913.63;;;21.63;31.27
77288;BME280;66345;42.694;23.346;2023-05-02T07:05:10;95899.91;;;22.74;29.73
77288;BME280;66345;42.694;23.346;2023-05-02T07:07:36;95902.53;;;22.20;30.58
77288;BME280;66345;42.694;23.346;2023-05-02T07:10:02;95924.22;;;21.48;30.62
77288;BME280;66345;42.694;23.346;2023-05-02T07:12:34;95919.44;;;21.38;31.86
77288;BME280;66345;42.694;23.346;2023-05-02T07:15:00;95912.41;;;21.37;31.21
77288;BME280;66345;42.694;23.346;2023-05-02T07:17:26;95912.91;;;21.51;31.33
77288;BME280;66345;42.694;23.346;2023-05-02T07:19:52;95917.66;;;23.14;27.96
77288;BME280;66345;42.694;23.346;2023-05-02T07:22:17;95930.66;;;22.02;29.93
77288;BME280;66345;42.694;23.346;2023-05-02T07:24:43;95930.19;;;21.50;30.89
77288;BME280;66345;42.694;23.346;2023-05-02T07:27:09;95928.63;;;20.23;32.56
77288;BME280;66345;42.694;23.346;2023-05-02T07:29:35;95911.97;;;20.95;31.84
77288;BME280;66345;42.694;23.346;2023-05-02T07:32:01;95924.63;;;21.95;29.95
77288;BME280;66345;42.694;23.346;2023-05-02T07:34:26;95919.41;;;22.98;28.56
77288;BME280;66345;42.694;23.346;2023-05-02T07:36:52;95924.06;;;21.76;30.60
77288;BME280;66345;42.694;23.346;2023-05-02T07:39:18;95918.28;;;22.23;29.98
77288;BME280;66345;42.694;23.346;2023-05-02T07:41:43;95911.31;;;21.72;30.93
77288;BME280;66345;42.694;23.346;2023-05-02T07:44:09;95923.81;;;21.95;30.19
77288;BME280;66345;42.694;23.346;2023-05-02T07:46:34;95928.06;;;21.91;30.32
77288;BME280;66345;42.694;23.346;2023-05-02T07:49:00;95913.81;;;23.74;26.99
77288;BME280;66345;42.694;23.346;2023-05-02T07:51:25;95912.09;;;24.68;26.13
77288;BME280;66345;42.694;23.346;2023-05-02T07:53:51;95931.25;;;22.70;28.75
77288;BME280;66345;42.694;23.346;2023-05-02T07:56:36;95918.72;;;23.13;28.47
77288;BME280;66345;42.694;23.346;2023-05-02T07:59:01;95931.09;;;22.11;29.35
77288;BME280;66345;42.694;23.346;2023-05-02T08:01:27;95915.66;;;24.16;26.67
77288;BME280;66345;42.694;23.346;2023-05-02T08:03:54;95907.59;;;23.78;27.03
77288;BME280;66345;42.694;23.346;2023-05-02T08:06:20;95899.41;;;27.54;22.72
77288;BME280;66345;42.694;23.346;2023-05-02T08:08:46;95915.22;;;25.17;25.66
77288;BME280;66345;42.694;23.346;2023-05-02T08:11:11;95912.66;;;27.71;22.59
77288;BME280;66345;42.694;23.346;2023-05-02T08:13:37;95932.19;;;24.67;25.90
77288;BME280;66345;42.694;23.346;2023-05-02T08:16:02;95924.06;;;22.32;28.86
77288;BME280;66345;42.694;23.346;2023-05-02T08:18:28;95919.63;;;22.96;28.32
77288;BME280;66345;42.694;23.346;2023-05-02T08:20:54;95902.69;;;24.23;26.63
77288;BME280;66345;42.694;23.346;2023-05-02T08:23:23;95912.84;;;24.43;26.47
77288;BME280;66345;42.694;23.346;2023-05-02T08:25:48;95903.13;;;24.57;26.04
77288;BME280;66345;42.694;23.346;2023-05-02T08:28:14;95912.22;;;26.00;23.67
77288;BME280;66345;42.694;23.346;2023-05-02T08:30:39;95923.34;;;25.98;23.74
77288;BME280;66345;42.694;23.346;2023-05-02T08:33:05;95914.16;;;25.79;24.75
77288;BME280;66345;42.694;23.346;2023-05-02T08:35:30;95918.72;;;25.99;23.70
77288;BME280;66345;42.694;23.346;2023-05-02T08:37:56;95926.44;;;24.00;25.90
77288;BME280;66345;42.694;23.346;2023-05-02T08:40:21;95915.41;;;24.17;26.30
77288;BME280;66345;42.694;23.346;2023-05-02T08:42:47;95907.88;;;25.53;24.41
77288;BME280;66345;42.694;23.346;2023-05-02T08:45:14;95914.97;;;23.51;26.83
77288;BME280;66345;42.694;23.346;2023-05-02T08:47:40;95922.31;;;24.40;25.79
77288;BME280;66345;42.694;23.346;2023-05-02T08:50:08;95918.78;;;22.91;27.67
77288;BME280;66345;42.694;23.346;2023-05-02T08:52:35;95895.84;;;24.83;25.70
77288;BME280;66345;42.694;23.346;2023-05-02T08:55:00;95897.84;;;25.33;24.26
77288;BME280;66345;42.694;23.346;2023-05-02T08:57:28;95891.97;;;26.32;23.03
77288;BME280;66345;42.694;23.346;2023-05-02T08:59:55;95896.84;;;26.35;23.67
77288;BME280;66345;42.694;23.346;2023-05-02T09:05:06;95898.94;;;25.78;23.43
77288;BME280;66345;42.694;23.346;2023-05-02T09:07:46;95889.13;;;25.36;24.68
77288;BME280;66345;42.694;23.346;2023-05-02T09:10:13;95884.28;;;27.37;22.07
77288;BME280;66345;42.694;23.346;2023-05-02T09:12:40;95905.22;;;23.87;25.85
77288;BME280;66345;42.694;23.346;2023-05-02T09:15:11;95894.38;;;24.40;25.61
77288;BME280;66345;42.694;23.346;2023-05-02T09:17:44;95896.75;;;24.26;25.28
77288;BME280;66345;42.694;23.346;2023-05-02T09:20:11;95886.66;;;25.81;23.38
77288;BME280;66345;42.694;23.346;2023-05-02T09:22:37;95879.19;;;23.49;25.87
77288;BME280;66345;42.694;23.346;2023-05-02T09:25:05;95898.06;;;23.71;25.87
77288;BME280;66345;42.694;23.346;2023-05-02T09:27:48;95899.13;;;24.80;24.03
77288;BME280;66345;42.694;23.346;2023-05-02T09:30:25;95905.00;;;23.99;25.86
77288;BME280;66345;42.694;23.346;2023-05-02T09:32:51;95880.13;;;24.80;24.60
77288;BME280;66345;42.694;23.346;2023-05-02T09:35:19;95877.00;;;26.39;23.10
77288;BME280;66345;42.694;23.346;2023-05-02T09:37:54;95876.91;;;27.04;21.38
77288;BME280;66345;42.694;23.346;2023-05-02T09:40:20;95891.25;;;25.90;22.25
77288;BME280;66345;42.694;23.346;2023-05-02T09:42:47;95859.09;;;26.77;21.97
77288;BME280;66345;42.694;23.346;2023-05-02T09:45:22;95865.69;;;27.45;20.84
77288;BME280;66345;42.694;23.346;2023-05-02T09:47:49;95875.03;;;27.97;20.10
77288;BME280;66345;42.694;23.346;2023-05-02T09:50:32;95871.25;;;26.41;21.94
77288;BME280;66345;42.694;23.346;2023-05-02T09:53:06;95878.81;;;25.49;22.88
77288;BME280;66345;42.694;23.346;2023-05-02T09:55:32;95862.84;;;28.37;20.16
77288;BME280;66345;42.694;23.346;2023-05-02T09:57:58;95869.47;;;26.06;22.28
77288;BME280;66345;42.694;23.346;2023-05-02T10:00:38;95862.75;;;25.52;23.03
77288;BME280;66345;42.694;23.346;2023-05-02T10:03:08;95864.34;;;25.68;22.54
77288;BME280;66345;42.694;23.346;2023-05-02T10:05:38;95848.78;;;26.15;22.42
77288;BME280;66345;42.694;23.346;2023-05-02T10:08:07;95866.50;;;25.92;22.61
77288;BME280;66345;42.694;23.346;2023-05-02T10:10:38;95852.63;;;26.68;21.04
77288;BME280;66345;42.694;23.346;2023-05-02T10:13:06;95853.03;;;25.26;23.19
77288;BME280;66345;42.694;23.346;2023-05-02T10:15:34;95852.41;;;24.93;22.79
77288;BME280;66345;42.694;23.346;2023-05-02T10:18:07;95858.50;;;24.27;23.86
77288;BME280;66345;42.694;23.346;2023-05-02T10:20:43;95841.56;;;24.88;23.22
77288;BME280;66345;42.694;23.346;2023-05-02T10:23:13;95840.66;;;24.37;23.74
77288;BME280;66345;42.694;23.346;2023-05-02T10:25:40;95848.69;;;24.11;24.51
77288;BME280;66345;42.694;23.346;2023-05-02T10:28:06;95832.91;;;23.98;24.42
77288;BME280;66345;42.694;23.346;2023-05-02T10:30:34;95839.13;;;23.98;24.32
77288;BME280;66345;42.694;23.346;2023-05-02T10:33:01;95834.25;;;22.84;25.45
77288;BME280;66345;42.694;23.346;2023-05-02T10:35:27;95814.06;;;22.91;25.70
77288;BME280;66345;42.694;23.346;2023-05-02T10:37:54;95827.22;;;22.56;26.11
77288;BME280;66345;42.694;23.346;2023-05-02T10:40:20;95828.25;;;22.77;26.42
77288;BME280;66345;42.694;23.346;2023-05-02T10:42:46;95832.56;;;22.02;27.54
77288;BME280;66345;42.694;23.346;2023-05-02T10:45:35;95816.91;;;22.26;27.29
77288;BME280;66345;42.694;23.346;2023-05-02T10:48:22;95811.69;;;22.19;27.22
77288;BME280;66345;42.694;23.346;2023-05-02T10:50:53;95820.59;;;21.98;27.31
77288;BME280;66345;42.694;23.346;2023-05-02T10:53:38;95802.94;;;21.90;27.93
77288;BME280;66345;42.694;23.346;2023-05-02T10:56:20;95813.13;;;22.05;27.19
77288;BME280;66345;42.694;23.346;2023-05-02T10:58:53;95817.00;;;21.15;28.81
77288;BME280;66345;42.694;23.346;2023-05-02T11:01:38;95813.22;;;20.94;28.83
77288;BME280;66345;42.694;23.346;2023-05-02T11:04:10;95814.41;;;20.69;29.26
77288;BME280;66345;42.694;23.346;2023-05-02T11:07:15;95809.00;;;20.53;29.61
77288;BME280;66345;42.694;23.346;2023-05-02T11:11:54;95823.50;;;20.63;29.66
77288;BME280;66345;42.694;23.346;2023-05-02T11:19:22;95818.97;;;20.69;29.88
77288;BME280;66345;42.694;23.346;2023-05-02T11:21:47;95794.97;;;21.01;29.45
77288;BME280;66345;42.694;23.346;2023-05-02T11:24:41;95798.31;;;20.91;29.51
77288;BME280;66345;42.694;23.346;2023-05-02T11:32:24;95792.34;;;21.06;29.43
77288;BME280;66345;42.694;23.346;2023-05-02T11:34:51;95788.38;;;21.30;29.03
77288;BME280;66345;42.694;23.346;2023-05-02T11:37:19;95790.28;;;21.30;28.84
77288;BME280;66345;42.694;23.346;2023-05-02T11:39:45;95777.59;;;21.69;28.32
77288;BME280;66345;42.694;23.346;2023-05-02T11:42:30;95795.75;;;21.18;29.11
77288;BME280;66345;42.694;23.346;2023-05-02T11:44:58;95770.44;;;20.86;30.24
77288;BME280;66345;42.694;23.346;2023-05-02T11:47:25;95784.50;;;21.04;29.58
77288;BME280;66345;42.694;23.346;2023-05-02T11:49:53;95779.94;;;20.88;29.78
77288;BME280;66345;42.694;23.346;2023-05-02T11:52:19;95772.31;;;20.68;30.23
77288;BME280;66345;42.694;23.346;2023-05-02T11:54:44;95779.28;;;20.64;30.22
77288;BME280;66345;42.694;23.346;2023-05-02T11:57:10;95780.25;;;20.75;30.07
77288;BME280;66345;42.694;23.346;2023-05-02T11:59:50;95779.09;;;20.88;29.91
77288;BME280;66345;42.694;23.346;2023-05-02T12:02:20;95746.84;;;21.31;29.39
77288;BME280;66345;42.694;23.346;2023-05-02T12:05:01;95763.88;;;21.54;29.00
77288;BME280;66345;42.694;23.346;2023-05-02T12:07:35;95768.59;;;21.25;29.90
77288;BME280;66345;42.694;23.346;2023-05-02T12:10:02;95755.22;;;20.96;29.87
77288;BME280;66345;42.694;23.346;2023-05-02T12:12:27;95757.97;;;21.18;29.56
77288;BME280;66345;42.694;23.346;2023-05-02T12:14:53;95747.19;;;21.18;29.43
77288;BME280;66345;42.694;23.346;2023-05-02T12:17:18;95755.97;;;21.09;29.25
77288;BME280;66345;42.694;23.346;2023-05-02T12:19:44;95741.28;;;20.66;29.76
77288;BME280;66345;42.694;23.346;2023-05-02T12:22:10;95747.78;;;20.70;29.76
77288;BME280;66345;42.694;23.346;2023-05-02T12:24:37;95733.81;;;20.90;29.53
77288;BME280;66345;42.694;23.346;2023-05-02T12:27:10;95733.13;;;20.99;29.41
77288;BME280;66345;42.694;23.346;2023-05-02T12:29:46;95734.59;;;21.07;29.39
77288;BME280;66345;42.694;23.346;2023-05-02T12:32:13;95736.34;;;20.96;29.15
77288;BME280;66345;42.694;23.346;2023-05-02T12:34:39;95721.09;;;21.07;28.62
77288;BME280;66345;42.694;23.346;2023-05-02T12:37:07;95726.38;;;20.80;28.92
77288;BME280;66345;42.694;23.346;2023-05-02T12:39:41;95733.59;;;20.58;29.22
77288;BME280;66345;42.694;23.346;2023-05-02T12:42:15;95710.34;;;20.23;29.45
77288;BME280;66345;42.694;23.346;2023-05-02T12:44:42;95708.97;;;20.37;29.44
77288;BME280;66345;42.694;23.346;2023-05-02T12:47:13;95707.28;;;20.65;28.91
77288;BME280;66345;42.694;23.346;2023-05-02T12:49:57;95705.44;;;20.37;28.68
77288;BME280;66345;42.694;23.346;2023-05-02T12:52:45;95717.00;;;20.49;28.82
77288;BME280;66345;42.694;23.346;2023-05-02T12:55:22;95692.16;;;20.47;28.41
77288;BME280;66345;42.694;23.346;2023-05-02T12:57:49;95709.00;;;20.71;28.38
77288;BME280;66345;42.694;23.346;2023-05-02T13:00:15;95699.66;;;20.62;28.22
77288;BME280;66345;42.694;23.346;2023-05-02T13:02:41;95701.72;;;20.55;28.37
77288;BME280;66345;42.694;23.346;2023-05-02T13:05:33;95694.31;;;20.84;28.29
77288;BME280;66345;42.694;23.346;2023-05-02T13:07:59;95699.41;;;20.80;28.18
77288;BME280;66345;42.694;23.346;2023-05-02T13:10:25;95710.44;;;20.62;28.10
77288;BME280;66345;42.694;23.346;2023-05-02T13:12:51;95701.97;;;19.91;29.08
77288;BME280;66345;42.694;23.346;2023-05-02T13:15:18;95693.19;;;20.29;28.83
77288;BME280;66345;42.694;23.346;2023-05-02T13:17:44;95702.59;;;20.43;29.02
77288;BME280;66345;42.694;23.346;2023-05-02T13:20:10;95703.69;;;20.59;28.68
77288;BME280;66345;42.694;23.346;2023-05-02T13:22:35;95720.41;;;20.28;29.05
77288;BME280;66345;42.694;23.346;2023-05-02T13:25:04;95707.31;;;20.36;29.47
77288;BME280;66345;42.694;23.346;2023-05-02T13:27:30;95707.72;;;20.11;29.18
77288;BME280;66345;42.694;23.346;2023-05-02T13:29:58;95702.84;;;20.42;28.81
77288;BME280;66345;42.694;23.346;2023-05-02T13:32:24;95703.88;;;20.24;28.95
77288;BME280;66345;42.694;23.346;2023-05-02T13:34:49;95705.19;;;20.21;28.79
77288;BME280;66345;42.694;23.346;2023-05-02T13:37:15;95697.88;;;20.34;28.79
77288;BME280;66345;42.694;23.346;2023-05-02T13:39:40;95703.69;;;20.59;29.06